createdAt,value
2022-10-24T00:00:37.581Z,3.15
2022-10-24T00:05:47.297Z,2.67
2022-10-24T00:10:49.416Z,3.10
2022-10-24T00:15:51.025Z,2.58
2022-10-24T00:20:52.539Z,3.25
2022-10-24T00:25:54.057Z,3.70
2022-10-24T00:30:55.474Z,3.10
2022-10-24T00:35:57.086Z,3.72
2022-10-24T00:40:58.501Z,2.97
2022-10-24T00:46:01.897Z,3.95
2022-10-24T00:51:14.989Z,2.20
2022-10-24T00:56:19.459Z,2.10
2022-10-24T01:01:21.073Z,3.17
2022-10-24T01:06:25.585Z,2.75
2022-10-24T01:11:44.989Z,3.10
2022-10-24T01:16:49.120Z,2.30
2022-10-24T01:21:57.370Z,2.20
2022-10-24T01:27:33.117Z,2.40
2022-10-24T01:32:37.483Z,1.85
2022-10-24T01:37:48.424Z,2.08
2022-10-24T01:42:53.365Z,2.00
2022-10-24T01:47:59.291Z,1.63
2022-10-24T01:53:02.298Z,1.83
2022-10-24T01:58:03.771Z,1.77
2022-10-24T02:03:16.704Z,2.10
2022-10-24T02:08:23.743Z,2.45
2022-10-24T02:13:42.252Z,1.58
2022-10-24T02:18:44.282Z,2.03
2022-10-24T02:23:50.895Z,1.63
2022-10-24T02:28:58.711Z,2.75
2022-10-24T02:34:03.550Z,1.73
2022-10-24T02:39:09.368Z,1.50
2022-10-24T02:44:15.260Z,1.50
2022-10-24T02:49:16.902Z,2.42
2022-10-24T02:54:18.439Z,1.77
2022-10-24T02:59:19.913Z,1.45
2022-10-24T03:04:21.480Z,2.00
2022-10-24T03:09:22.993Z,1.65
2022-10-24T03:14:24.488Z,1.70
2022-10-24T03:19:26.107Z,1.92
2022-10-24T03:24:43.364Z,1.90
2022-10-24T03:29:46.060Z,2.10
2022-10-24T03:34:47.564Z,1.98
2022-10-24T03:39:49.235Z,2.35
2022-10-24T03:44:50.702Z,2.20
2022-10-24T03:49:52.169Z,2.20
2022-10-24T03:54:53.645Z,1.90
2022-10-24T03:59:55.129Z,1.67
2022-10-24T04:04:56.623Z,2.45
2022-10-24T04:09:58.048Z,2.70
2022-10-24T04:15:02.488Z,2.45
2022-10-24T04:20:07.139Z,2.25
2022-10-24T04:25:08.624Z,2.22
2022-10-24T04:30:16.460Z,2.92
2022-10-24T04:35:18.172Z,2.03
2022-10-24T04:40:19.639Z,2.20
2022-10-24T04:45:21.072Z,2.33
2022-10-24T04:50:22.527Z,3.22
2022-10-24T04:55:24.295Z,3.90
2022-10-24T05:00:25.947Z,2.90
2022-10-24T05:05:27.633Z,3.53
2022-10-24T05:10:29.126Z,3.53
2022-10-24T05:15:30.805Z,3.45
2022-10-24T05:20:32.423Z,3.50
2022-10-24T05:25:33.911Z,2.45
2022-10-24T05:30:35.397Z,3.88
2022-10-24T05:35:38.261Z,2.90
2022-10-24T05:40:39.710Z,3.95
2022-10-24T05:45:41.266Z,3.33
2022-10-24T05:50:42.991Z,3.85
2022-10-24T05:55:45.098Z,2.95
2022-10-24T06:00:52.555Z,3.30
2022-10-24T06:05:55.373Z,3.05
2022-10-24T06:10:56.808Z,2.22
2022-10-24T06:15:58.301Z,2.33
2022-10-24T06:21:02.184Z,2.70
2022-10-24T06:26:07.741Z,2.10
2022-10-24T06:31:11.105Z,2.83
2022-10-24T06:36:14.408Z,1.98
2022-10-24T06:41:17.312Z,1.85
2022-10-24T06:46:23.140Z,2.35
2022-10-24T06:51:25.211Z,2.05
2022-10-24T06:56:26.857Z,1.75
2022-10-24T07:01:28.751Z,1.60
2022-10-24T07:06:30.305Z,1.65
2022-10-24T07:11:32.581Z,1.40
2022-10-24T07:16:34.222Z,1.20
2022-10-24T07:21:35.981Z,0.90
2022-10-24T07:26:39.591Z,0.90
2022-10-24T07:31:42.258Z,1.67
2022-10-24T07:36:44.109Z,1.10
2022-10-24T07:41:46.791Z,1.30
2022-10-24T07:46:49.123Z,1.65
2022-10-24T07:51:50.947Z,1.60
2022-10-24T07:56:54.129Z,1.38
2022-10-24T08:01:56.082Z,1.13
2022-10-24T08:06:58.490Z,1.20
2022-10-24T08:12:00.319Z,1.20
2022-10-24T08:17:01.828Z,1.20
2022-10-24T08:22:03.885Z,2.17
2022-10-24T08:27:05.435Z,2.58
2022-10-24T08:32:07.332Z,2.15
2022-10-24T08:37:08.908Z,1.85
2022-10-24T08:42:14.797Z,1.92
2022-10-24T08:47:22.498Z,1.98
2022-10-24T08:52:28.754Z,1.40
2022-10-24T09:02:44.289Z,1.40
2022-10-24T09:07:48.169Z,2.30
2022-10-24T09:12:49.850Z,1.63
2022-10-24T09:17:52.651Z,2.60
2022-10-24T09:22:57.621Z,2.95
2022-10-24T09:28:02.666Z,2.15
2022-10-24T09:33:25.554Z,1.70
2022-10-24T09:38:36.049Z,1.80
2022-10-24T09:43:40.520Z,2.40
2022-10-24T09:48:41.932Z,1.80
2022-10-24T09:54:02.282Z,2.08
2022-10-24T10:04:41.670Z,1.50
2022-10-24T10:09:52.750Z,1.98
2022-10-24T10:14:58.200Z,2.00
2022-10-24T10:19:59.874Z,1.33
2022-10-24T10:25:01.673Z,1.70
2022-10-24T10:30:17.844Z,1.80
2022-10-24T10:35:52.044Z,2.03
2022-10-24T10:41:03.872Z,1.75
2022-10-24T10:46:08.425Z,1.70
2022-10-24T10:51:58.808Z,2.17
